createdAt,value
2018-12-25T00:01:29.476Z,3.32
2018-12-25T00:04:00.308Z,3.39
2018-12-25T00:06:31.080Z,3.25
2018-12-25T00:09:01.983Z,3.16
2018-12-25T00:11:32.735Z,3.27
2018-12-25T00:14:03.524Z,3.37
2018-12-25T00:16:34.280Z,3.41
2018-12-25T00:19:06.297Z,3.48
2018-12-25T00:21:37.774Z,3.41
2018-12-25T00:24:08.568Z,3.54
2018-12-25T00:26:39.345Z,3.45
2018-12-25T00:29:10.118Z,3.48
2018-12-25T00:31:40.904Z,3.55
2018-12-25T00:34:11.687Z,3.51
2018-12-25T00:36:42.484Z,3.48
2018-12-25T00:39:14.565Z,3.49
2018-12-25T00:41:45.313Z,3.58
2018-12-25T00:44:16.103Z,3.71
2018-12-25T00:46:46.899Z,3.68
2018-12-25T00:49:17.633Z,3.71
2018-12-25T00:51:48.488Z,3.80
2018-12-25T00:54:19.310Z,3.77
2018-12-25T00:56:50.066Z,3.77
2018-12-25T00:59:20.855Z,3.70
2018-12-25T01:01:51.622Z,3.67
2018-12-25T01:04:22.410Z,3.79
2018-12-25T01:06:53.200Z,3.88
2018-12-25T01:09:24.087Z,3.80
2018-12-25T01:11:54.852Z,3.78
2018-12-25T01:14:25.667Z,3.75
2018-12-25T01:16:56.433Z,3.82
2018-12-25T01:19:27.205Z,3.91
2018-12-25T01:21:58.028Z,3.96
2018-12-25T01:24:28.796Z,3.86
2018-12-25T01:26:59.594Z,3.87
2018-12-25T01:29:30.328Z,3.84
2018-12-25T01:32:01.152Z,3.89
2018-12-25T01:34:32.171Z,3.90
2018-12-25T01:37:03.068Z,3.95
2018-12-25T01:39:33.867Z,3.96
2018-12-25T01:42:04.717Z,3.85
2018-12-25T01:44:35.577Z,3.89
2018-12-25T01:47:06.343Z,3.94
2018-12-25T01:49:37.187Z,4.01
2018-12-25T01:52:08.015Z,4.04
2018-12-25T01:54:38.811Z,4.05
2018-12-25T01:57:09.623Z,4.05
2018-12-25T01:59:40.499Z,4.07
2018-12-25T02:02:11.335Z,3.94
2018-12-25T02:04:42.161Z,4.02
2018-12-25T02:07:12.948Z,4.12
2018-12-25T02:09:43.695Z,4.13
2018-12-25T02:12:14.452Z,4.10
2018-12-25T02:14:45.267Z,4.13
2018-12-25T02:17:16.071Z,4.13
2018-12-25T02:19:46.845Z,4.15
2018-12-25T02:22:17.635Z,4.14
2018-12-25T02:24:48.367Z,4.15
2018-12-25T02:27:19.184Z,4.05
2018-12-25T02:29:49.944Z,3.98
2018-12-25T02:32:20.718Z,4.07
2018-12-25T02:34:51.522Z,4.13
2018-12-25T02:37:22.318Z,4.25
2018-12-25T02:39:53.117Z,4.24
2018-12-25T02:42:23.859Z,4.21
2018-12-25T02:44:54.699Z,4.17
2018-12-25T02:47:25.468Z,4.15
2018-12-25T02:49:56.245Z,4.18
2018-12-25T02:52:27.025Z,4.23
2018-12-25T02:54:57.792Z,4.28
2018-12-25T02:57:28.545Z,4.33
2018-12-25T02:59:59.358Z,4.20
2018-12-25T03:02:30.151Z,4.34
2018-12-25T03:05:00.965Z,4.33
2018-12-25T03:07:31.732Z,4.34
2018-12-25T03:10:02.552Z,4.28
2018-12-25T03:12:33.385Z,4.25
2018-12-25T03:15:04.323Z,4.24
2018-12-25T03:17:35.124Z,4.22
2018-12-25T03:20:06.093Z,4.13
2018-12-25T03:22:36.883Z,4.10
2018-12-25T03:25:07.663Z,4.10
2018-12-25T03:27:38.443Z,4.05
2018-12-25T03:30:09.180Z,4.08
2018-12-25T03:32:39.982Z,4.05
2018-12-25T03:35:10.712Z,3.99
2018-12-25T03:37:41.498Z,4.01
2018-12-25T03:40:12.279Z,4.09
2018-12-25T03:42:43.054Z,4.05
2018-12-25T03:45:13.869Z,4.07
2018-12-25T03:47:44.620Z,4.11
2018-12-25T03:50:15.419Z,4.06
2018-12-25T03:52:46.194Z,4.09
2018-12-25T03:55:17.017Z,4.17
2018-12-25T03:57:47.879Z,4.17
2018-12-25T04:00:18.632Z,4.23
2018-12-25T04:02:49.382Z,4.20
2018-12-25T04:05:20.157Z,4.22
2018-12-25T04:07:50.930Z,4.12
2018-12-25T04:10:21.690Z,4.23
2018-12-25T04:12:54.835Z,4.23
2018-12-25T04:15:25.620Z,4.21
2018-12-25T04:17:56.338Z,4.24
2018-12-25T04:20:27.157Z,4.31
2018-12-25T04:22:57.886Z,4.23
2018-12-25T04:25:28.640Z,4.28
2018-12-25T04:27:59.377Z,4.26
2018-12-25T04:30:30.189Z,4.25
2018-12-25T04:33:00.926Z,4.27
2018-12-25T04:35:31.909Z,4.28
2018-12-25T04:38:02.694Z,4.36
2018-12-25T04:40:33.508Z,4.34
2018-12-25T04:43:04.380Z,4.42
2018-12-25T04:45:35.142Z,4.41
2018-12-25T04:48:05.911Z,4.46
2018-12-25T04:50:36.627Z,4.42
2018-12-25T04:53:07.399Z,4.45
2018-12-25T04:55:38.158Z,4.41
2018-12-25T04:58:08.962Z,4.44
2018-12-25T05:00:39.734Z,4.40
2018-12-25T05:03:10.498Z,4.44
2018-12-25T05:05:41.330Z,4.44
2018-12-25T05:08:12.114Z,4.39
2018-12-25T05:10:42.871Z,4.46
2018-12-25T05:13:13.648Z,4.46
2018-12-25T05:15:44.422Z,4.41
2018-12-25T05:18:15.192Z,4.53
2018-12-25T05:20:45.915Z,4.48
2018-12-25T05:23:16.737Z,4.51
2018-12-25T05:25:47.432Z,4.53
2018-12-25T05:28:18.165Z,4.46
2018-12-25T05:30:48.915Z,4.58
2018-12-25T05:33:19.706Z,4.58
2018-12-25T05:35:50.500Z,4.57
2018-12-25T05:38:21.229Z,4.62
2018-12-25T05:40:52.051Z,4.51
2018-12-25T05:43:22.789Z,4.65
2018-12-25T05:45:53.603Z,4.63
2018-12-25T05:48:24.396Z,4.64
2018-12-25T05:50:55.190Z,4.66
2018-12-25T05:53:25.965Z,4.71
2018-12-25T05:55:56.758Z,4.69
2018-12-25T05:58:27.530Z,4.72
2018-12-25T06:00:58.353Z,4.69
2018-12-25T06:03:29.096Z,4.63
2018-12-25T06:05:59.876Z,4.70
2018-12-25T06:08:30.734Z,4.66
2018-12-25T06:11:01.501Z,4.65
2018-12-25T06:13:32.285Z,4.64
2018-12-25T06:16:03.057Z,4.62
2018-12-25T06:18:33.838Z,4.59
2018-12-25T06:21:05.109Z,4.61
2018-12-25T06:23:35.999Z,4.68
2018-12-25T06:26:06.823Z,4.60
2018-12-25T06:28:37.637Z,4.61
2018-12-25T06:31:08.373Z,4.62
2018-12-25T06:33:39.236Z,4.63
2018-12-25T06:36:10.008Z,4.60
2018-12-25T06:38:41.745Z,4.55
2018-12-25T06:41:12.645Z,4.46
2018-12-25T06:43:43.493Z,4.47
2018-12-25T06:46:15.098Z,4.42
2018-12-25T06:48:45.961Z,4.44
2018-12-25T06:51:16.830Z,4.41
2018-12-25T06:53:47.654Z,4.38
2018-12-25T06:56:18.429Z,4.37
2018-12-25T06:58:49.382Z,4.43
2018-12-25T07:01:21.017Z,4.44
2018-12-25T07:03:51.841Z,4.34
2018-12-25T07:06:22.645Z,4.38
2018-12-25T07:08:53.508Z,4.28
2018-12-25T07:11:24.273Z,4.20
2018-12-25T07:13:55.138Z,4.26
2018-12-25T07:16:26.031Z,4.20
2018-12-25T07:18:56.762Z,4.20
2018-12-25T07:21:27.724Z,4.20
2018-12-25T07:23:58.456Z,4.20
2018-12-25T07:26:29.290Z,4.20
2018-12-25T07:29:00.285Z,4.29
2018-12-25T07:31:34.103Z,4.34
2018-12-25T07:34:04.915Z,4.31
2018-12-25T07:36:35.875Z,4.33
2018-12-25T07:39:08.036Z,4.28
2018-12-25T07:41:42.562Z,4.31
2018-12-25T07:44:13.435Z,4.28
2018-12-25T07:46:44.412Z,4.31
2018-12-25T07:49:15.310Z,4.32
2018-12-25T07:51:46.256Z,4.39
2018-12-25T07:54:17.735Z,4.41
2018-12-25T07:56:48.539Z,4.45
2018-12-25T07:59:19.327Z,4.47
2018-12-25T08:01:50.142Z,4.49
2018-12-25T08:04:21.038Z,4.41
2018-12-25T08:06:51.750Z,4.45
2018-12-25T08:09:22.603Z,4.40
2018-12-25T08:11:53.369Z,4.47
2018-12-25T08:14:24.140Z,4.46
2018-12-25T08:16:54.994Z,4.51
2018-12-25T08:19:25.787Z,4.46
2018-12-25T08:21:56.626Z,4.41
2018-12-25T08:24:27.393Z,4.48
2018-12-25T08:26:58.255Z,4.46
2018-12-25T08:29:29.049Z,4.54
2018-12-25T08:31:59.944Z,4.58
2018-12-25T08:34:30.806Z,4.58
2018-12-25T08:37:01.583Z,4.60
2018-12-25T08:39:32.398Z,4.57
2018-12-25T08:42:03.227Z,4.52
2018-12-25T08:44:34.011Z,4.42
2018-12-25T08:47:04.828Z,4.44
2018-12-25T08:49:35.773Z,4.44
2018-12-25T08:52:08.806Z,4.55
2018-12-25T08:54:39.279Z,4.60
2018-12-25T08:57:10.159Z,4.60
2018-12-25T08:59:40.939Z,4.62
2018-12-25T09:02:11.747Z,4.63
2018-12-25T09:04:42.499Z,4.64
2018-12-25T09:07:13.265Z,4.65
2018-12-25T09:09:43.980Z,4.57
2018-12-25T09:12:14.803Z,4.54
2018-12-25T09:14:45.531Z,4.48
2018-12-25T09:17:18.769Z,4.46
2018-12-25T09:22:28.208Z,4.44
2018-12-25T09:25:07.763Z,4.45
2018-12-25T09:27:36.551Z,4.50
2018-12-25T09:30:14.984Z,4.48
2018-12-25T09:32:45.836Z,4.45
2018-12-25T09:35:16.721Z,4.53
2018-12-25T09:37:50.677Z,4.57
2018-12-25T09:40:21.516Z,4.55
2018-12-25T09:42:52.247Z,4.53
2018-12-25T09:45:23.091Z,4.52
2018-12-25T09:47:53.891Z,4.50
2018-12-25T09:50:25.184Z,4.52
2018-12-25T09:52:56.278Z,4.55
2018-12-25T09:55:27.087Z,4.58
2018-12-25T09:57:58.009Z,4.62
2018-12-25T10:00:28.919Z,4.59
2018-12-25T10:02:59.800Z,4.57
2018-12-25T10:05:30.982Z,4.59
2018-12-25T10:08:01.794Z,4.66
2018-12-25T10:10:33.165Z,4.65
2018-12-25T10:13:04.220Z,4.75
2018-12-25T10:15:35.456Z,4.77
2018-12-25T10:18:09.030Z,4.81
2018-12-25T10:20:41.905Z,4.82
2018-12-25T10:23:13.612Z,4.90
2018-12-25T10:25:44.610Z,4.89
2018-12-25T10:28:15.651Z,4.90
2018-12-25T10:30:46.867Z,4.90
2018-12-25T10:33:18.610Z,4.95
2018-12-25T10:35:49.352Z,4.99
2018-12-25T10:38:20.280Z,4.99
2018-12-25T10:40:51.145Z,5.00
2018-12-25T10:43:21.961Z,5.03
2018-12-25T10:45:52.734Z,5.09
2018-12-25T10:48:23.551Z,5.08
2018-12-25T10:50:54.396Z,5.09
2018-12-25T10:53:25.186Z,5.13
2018-12-25T10:55:55.998Z,5.11
2018-12-25T10:58:26.803Z,5.12
2018-12-25T11:01:08.539Z,5.10
2018-12-25T11:03:39.391Z,5.14
2018-12-25T11:06:10.174Z,5.22
2018-12-25T11:08:41.006Z,5.21
2018-12-25T11:11:11.758Z,5.22
2018-12-25T11:13:42.556Z,5.31
2018-12-25T11:16:13.390Z,5.31
2018-12-25T11:18:49.032Z,5.31
2018-12-25T11:21:16.774Z,5.29
2018-12-25T11:23:47.566Z,5.34
2018-12-25T11:26:18.372Z,5.29
2018-12-25T11:28:49.139Z,5.27
2018-12-25T11:31:20.038Z,5.41
2018-12-25T11:33:50.838Z,5.46
2018-12-25T11:36:21.913Z,5.49
2018-12-25T11:38:52.754Z,5.55
2018-12-25T11:41:23.627Z,5.61
2018-12-25T11:43:54.461Z,5.58
2018-12-25T11:46:25.325Z,5.65
2018-12-25T11:48:56.130Z,5.69
2018-12-25T11:51:26.942Z,5.68
2018-12-25T11:53:57.896Z,5.69
2018-12-25T11:56:28.829Z,5.74
2018-12-25T11:59:02.090Z,5.77
2018-12-25T12:01:47.300Z,5.89
2018-12-25T12:04:18.917Z,5.85
2018-12-25T12:06:50.277Z,5.97
2018-12-25T12:09:25.235Z,5.94
2018-12-25T12:11:56.876Z,5.99
2018-12-25T12:14:28.310Z,6.07
2018-12-25T12:17:01.151Z,6.02
2018-12-25T12:19:33.750Z,6.02
2018-12-25T12:22:05.133Z,6.05
2018-12-25T12:24:38.483Z,6.10
2018-12-25T12:27:09.903Z,6.12
2018-12-25T12:29:41.447Z,6.06
2018-12-25T12:32:12.389Z,6.10
2018-12-25T12:34:47.164Z,6.14
2018-12-25T12:37:19.309Z,6.19
2018-12-25T12:39:50.552Z,6.20
2018-12-25T12:42:21.603Z,6.21
2018-12-25T12:44:54.708Z,6.17
2018-12-25T12:47:25.581Z,6.28
2018-12-25T12:49:56.838Z,6.27
2018-12-25T12:52:27.815Z,6.29
2018-12-25T12:54:58.631Z,6.32
2018-12-25T12:57:30.497Z,6.38
2018-12-25T13:00:01.789Z,6.48
2018-12-25T13:02:32.709Z,6.53
2018-12-25T13:05:03.793Z,6.52
2018-12-25T13:07:34.838Z,6.55
2018-12-25T13:10:06.320Z,6.57
2018-12-25T13:12:37.408Z,6.68
2018-12-25T13:15:09.953Z,6.71
2018-12-25T13:17:45.340Z,6.70
2018-12-25T13:20:17.082Z,6.72
2018-12-25T13:22:54.013Z,6.73
2018-12-25T13:25:22.283Z,6.62
2018-12-25T13:27:53.117Z,6.50
2018-12-25T13:30:23.913Z,6.37
2018-12-25T13:32:55.005Z,6.34
2018-12-25T13:35:25.873Z,6.28
2018-12-25T13:37:56.746Z,6.33
2018-12-25T13:40:27.773Z,6.47
2018-12-25T13:43:13.517Z,6.54
2018-12-25T13:45:47.998Z,6.53
2018-12-25T13:48:19.585Z,6.52
2018-12-25T13:50:51.312Z,6.55
2018-12-25T13:53:27.572Z,6.43
2018-12-25T13:56:12.450Z,6.26
2018-12-25T13:58:35.440Z,6.11
2018-12-25T14:01:19.832Z,6.18
2018-12-25T14:03:50.949Z,6.12
2018-12-25T14:06:27.335Z,6.11
2018-12-25T14:09:00.253Z,6.09
2018-12-25T14:11:34.553Z,6.02
2018-12-25T14:14:06.838Z,5.98
2018-12-25T14:16:38.094Z,6.00
2018-12-25T14:22:18.464Z,5.95
2018-12-25T14:24:49.631Z,5.94
2018-12-25T14:27:20.496Z,5.88
2018-12-25T14:29:52.873Z,5.83
2018-12-25T14:32:26.989Z,6.00
2018-12-25T14:35:00.958Z,5.98
2018-12-25T14:37:41.175Z,5.96
2018-12-25T14:40:08.666Z,5.92
2018-12-25T14:42:42.659Z,5.96
2018-12-25T14:45:14.054Z,5.88
2018-12-25T14:47:45.372Z,5.92
2018-12-25T14:50:16.500Z,5.90
2018-12-25T14:52:47.639Z,5.89
2018-12-25T14:55:18.933Z,5.78
2018-12-25T14:57:50.224Z,5.76
2018-12-25T15:00:21.376Z,5.84
2018-12-25T15:02:53.753Z,5.87
2018-12-25T15:05:25.066Z,5.85
2018-12-25T15:08:00.737Z,5.87
2018-12-25T15:10:31.732Z,5.86
2018-12-25T15:13:02.660Z,5.84
2018-12-25T15:15:33.608Z,5.80
2018-12-25T15:18:04.486Z,5.82
2018-12-25T15:20:35.290Z,5.75
2018-12-25T15:23:06.061Z,5.85
2018-12-25T15:25:36.837Z,5.86
2018-12-25T15:28:07.652Z,5.83
2018-12-25T15:30:38.404Z,5.86
2018-12-25T15:33:09.177Z,5.86
2018-12-25T15:35:39.968Z,5.82
2018-12-25T15:38:10.794Z,5.83
2018-12-25T15:40:41.609Z,5.83
2018-12-25T15:43:12.401Z,5.73
2018-12-25T15:45:43.303Z,5.77
2018-12-25T15:48:14.187Z,5.72
2018-12-25T15:50:44.944Z,5.68
2018-12-25T15:53:15.743Z,5.61
2018-12-25T15:55:46.547Z,5.61
2018-12-25T15:58:21.828Z,5.47
2018-12-25T16:00:52.626Z,5.55
2018-12-25T16:03:23.378Z,5.44
2018-12-25T16:05:54.181Z,5.52
2018-12-25T16:08:24.979Z,5.46
2018-12-25T16:10:55.797Z,5.50
2018-12-25T16:13:26.564Z,5.50
2018-12-25T16:15:57.357Z,5.48
2018-12-25T16:18:28.110Z,5.44
2018-12-25T16:20:58.952Z,5.48
2018-12-25T16:23:29.771Z,5.41
2018-12-25T16:26:00.556Z,5.41
2018-12-25T16:28:31.359Z,5.41
2018-12-25T16:31:02.108Z,5.35
2018-12-25T16:33:32.904Z,5.39
2018-12-25T16:36:03.690Z,5.27
2018-12-25T16:38:34.476Z,5.43
2018-12-25T16:41:05.249Z,5.42
2018-12-25T16:43:36.038Z,5.40
2018-12-25T16:46:06.876Z,5.35
2018-12-25T16:48:37.696Z,5.45
2018-12-25T16:51:08.474Z,5.51
2018-12-25T16:53:39.224Z,5.53
2018-12-25T16:56:09.990Z,5.48
2018-12-25T16:58:40.730Z,5.51
2018-12-25T17:01:11.534Z,5.50
2018-12-25T17:03:42.336Z,5.63
2018-12-25T17:06:13.118Z,5.64
2018-12-25T17:08:43.915Z,5.63
2018-12-25T17:11:14.723Z,5.64
2018-12-25T17:13:45.508Z,5.64
2018-12-25T17:16:16.306Z,5.64
2018-12-25T17:18:47.164Z,5.55
2018-12-25T17:21:17.958Z,5.66
2018-12-25T17:23:48.749Z,5.68
2018-12-25T17:26:19.580Z,5.67
2018-12-25T17:28:50.348Z,5.69
2018-12-25T17:31:21.136Z,5.74
2018-12-25T17:33:51.926Z,5.74
2018-12-25T17:36:22.720Z,5.67
2018-12-25T17:38:54.860Z,5.74
2018-12-25T17:41:25.662Z,5.78
2018-12-25T17:43:56.413Z,5.80
2018-12-25T17:46:27.214Z,5.75
2018-12-25T17:48:58.064Z,5.76
2018-12-25T17:51:28.845Z,5.74
2018-12-25T17:53:59.689Z,5.78
2018-12-25T17:56:37.718Z,5.77
2018-12-25T17:59:02.970Z,5.74
2018-12-25T18:01:33.786Z,5.65
2018-12-25T18:04:04.636Z,5.79
2018-12-25T18:06:35.426Z,5.83
2018-12-25T18:09:07.656Z,5.79
2018-12-25T18:11:38.476Z,5.83
2018-12-25T18:14:09.228Z,5.85
2018-12-25T18:16:39.992Z,5.82
2018-12-25T18:19:10.796Z,5.86
2018-12-25T18:21:41.568Z,5.82
2018-12-25T18:24:19.155Z,5.75
2018-12-25T18:26:44.954Z,5.82
2018-12-25T18:29:15.735Z,5.88
2018-12-25T18:31:46.521Z,5.78
2018-12-25T18:34:17.327Z,5.83
2018-12-25T18:36:48.121Z,5.92
2018-12-25T18:39:18.931Z,5.91
2018-12-25T18:41:49.697Z,5.83
2018-12-25T18:44:20.480Z,5.89
2018-12-25T18:46:51.305Z,5.94
2018-12-25T18:49:22.070Z,5.96
2018-12-25T18:51:52.827Z,5.89
2018-12-25T18:54:27.713Z,5.92
2018-12-25T18:56:56.125Z,5.89
2018-12-25T18:59:26.951Z,5.83
2018-12-25T19:01:57.735Z,5.88
2018-12-25T19:04:28.543Z,5.96
2018-12-25T19:06:59.317Z,5.95
2018-12-25T19:09:30.131Z,5.89
2018-12-25T19:12:00.921Z,5.89
2018-12-25T19:14:31.721Z,5.89
2018-12-25T19:17:02.497Z,5.84
2018-12-25T19:19:33.371Z,5.98
2018-12-25T19:22:04.134Z,5.93
2018-12-25T19:24:36.384Z,5.93
2018-12-25T19:27:07.598Z,5.96
2018-12-25T19:29:38.368Z,5.87
2018-12-25T19:32:09.133Z,5.89
2018-12-25T19:34:39.903Z,5.98
2018-12-25T19:37:11.247Z,5.96
2018-12-25T19:39:42.123Z,5.95
2018-12-25T19:42:12.966Z,5.87
2018-12-25T19:44:43.939Z,5.89
2018-12-25T19:47:14.861Z,5.93
2018-12-25T19:49:45.748Z,5.82
2018-12-25T19:52:16.553Z,5.86
2018-12-25T19:54:47.415Z,5.78
2018-12-25T19:57:18.321Z,5.91
2018-12-25T19:59:49.107Z,6.04
2018-12-25T20:02:19.987Z,5.91
2018-12-25T20:05:35.427Z,5.95
2018-12-25T20:08:47.323Z,5.97
2018-12-25T20:12:12.984Z,5.89
2018-12-25T20:15:36.243Z,5.86
2018-12-25T20:18:55.643Z,5.94
2018-12-25T20:22:27.494Z,5.93
2018-12-25T20:26:18.729Z,5.93
2018-12-25T20:29:55.269Z,5.84
2018-12-25T20:33:21.152Z,5.83
2018-12-25T20:37:18.139Z,5.90
2018-12-25T20:40:53.793Z,5.91
2018-12-25T20:44:38.738Z,5.91
2018-12-25T20:48:14.332Z,5.92
2018-12-25T20:51:27.413Z,5.73
2018-12-25T20:55:19.152Z,5.93
2018-12-25T20:58:46.821Z,5.91
2018-12-25T21:02:25.935Z,5.93
2018-12-25T21:06:03.724Z,5.84
2018-12-25T21:09:32.417Z,5.97
2018-12-25T21:12:55.180Z,5.75
2018-12-25T21:16:35.564Z,5.99
2018-12-25T21:20:17.949Z,5.97
2018-12-25T21:23:55.558Z,5.94
2018-12-25T21:27:20.111Z,5.95
2018-12-25T21:29:56.784Z,5.98
2018-12-25T21:32:27.634Z,5.91
2018-12-25T21:35:10.030Z,5.88
2018-12-25T21:37:52.106Z,5.99
2018-12-25T21:40:28.343Z,5.93
2018-12-25T21:43:04.400Z,5.89
2018-12-25T21:45:41.435Z,6.02
2018-12-25T21:48:16.005Z,6.02
2018-12-25T21:50:49.398Z,6.02
2018-12-25T21:53:24.988Z,5.89
2018-12-25T21:56:18.763Z,5.92
2018-12-25T21:58:56.288Z,5.88
2018-12-25T22:01:47.092Z,5.85
2018-12-25T22:04:15.872Z,5.90
2018-12-25T22:06:56.006Z,5.88
2018-12-25T22:09:31.354Z,5.79
2018-12-25T22:12:08.926Z,5.89
2018-12-25T22:14:46.886Z,6.01
2018-12-25T22:17:22.290Z,6.00
2018-12-25T22:20:50.339Z,6.00
2018-12-25T22:23:26.633Z,5.98
2018-12-25T22:26:02.704Z,5.92
2018-12-25T22:28:34.054Z,5.94
2018-12-25T22:31:06.746Z,5.94
2018-12-25T22:33:47.702Z,6.00
2018-12-25T22:36:40.108Z,6.06
2018-12-25T22:39:26.538Z,5.91
2018-12-25T22:42:20.706Z,6.05
